TimeMST,TemperatureF,Dew PointF,Humidity,Sea Level PressureIn,VisibilityMPH,Wind Direction,Wind SpeedMPH,Gust SpeedMPH,PrecipitationIn,Events,Conditions,WindDirDegrees,DateUTC
12:53 AM,33.1,30.0,89,30.16,10.0,Calm,Calm,-,N/A,,Mostly Cloudy,0,2014-02-09 07:53:00
1:53 AM,33.1,30.0,89,30.15,10.0,Calm,Calm,-,N/A,,Overcast,0,2014-02-09 08:53:00
2:53 AM,32.0,28.9,88,30.15,10.0,Calm,Calm,-,N/A,,Overcast,0,2014-02-09 09:53:00
3:53 AM,32.0,30.0,92,30.12,10.0,ENE,4.6,-,N/A,,Overcast,70,2014-02-09 10:53:00
4:53 AM,33.1,30.0,89,30.13,10.0,Calm,Calm,-,N/A,,Overcast,0,2014-02-09 11:53:00
5:53 AM,30.9,28.9,92,30.14,10.0,Calm,Calm,-,N/A,,Scattered Clouds,0,2014-02-09 12:53:00
6:53 AM,32.0,30.0,92,30.17,10.0,Calm,Calm,-,N/A,,Overcast,0,2014-02-09 13:53:00
7:53 AM,32.0,30.0,92,30.18,10.0,Calm,Calm,-,N/A,,Clear,0,2014-02-09 14:53:00
8:53 AM,37.0,30.0,76,30.17,10.0,Calm,Calm,-,N/A,,Clear,0,2014-02-09 15:53:00
9:53 AM,39.0,28.9,67,30.14,10.0,ESE,4.6,-,N/A,,Clear,110,2014-02-09 16:53:00
10:53 AM,42.1,30.0,62,30.11,10.0,Calm,Calm,-,N/A,,Mostly Cloudy,0,2014-02-09 17:53:00
11:53 AM,43.0,30.9,62,30.09,10.0,ENE,3.5,-,N/A,,Overcast,70,2014-02-09 18:53:00
12:53 PM,43.0,32.0,65,30.06,10.0,Calm,Calm,-,0.00,Rain,Light Rain,0,2014-02-09 19:53:00
1:53 PM,43.0,33.1,68,30.04,10.0,West,6.9,-,0.00,,Overcast,280,2014-02-09 20:53:00
2:53 PM,44.1,34.0,68,30.04,10.0,West,5.8,-,N/A,,Overcast,270,2014-02-09 21:53:00
3:53 PM,46.0,33.1,61,30.01,10.0,NW,3.5,-,N/A,,Overcast,310,2014-02-09 22:53:00
4:53 PM,45.0,34.0,65,30.01,10.0,Variable,3.5,-,N/A,,Overcast,0,2014-02-09 23:53:00
5:53 PM,46.0,33.1,61,30.02,10.0,Calm,Calm,-,N/A,,Overcast,0,2014-02-10 00:53:00
6:53 PM,41.0,34.0,76,30.05,10.0,SSW,5.8,-,N/A,,Mostly Cloudy,210,2014-02-10 01:53:00
7:53 PM,45.0,32.0,60,30.02,10.0,West,18.4,26.5,N/A,,Clear,270,2014-02-10 02:53:00
8:53 PM,43.0,32.0,65,30.02,10.0,West,12.7,-,N/A,,Clear,270,2014-02-10 03:53:00
9:53 PM,41.0,32.0,70,30.04,10.0,WSW,4.6,-,N/A,,Clear,240,2014-02-10 04:53:00
10:53 PM,33.1,30.0,89,30.05,10.0,NNE,5.8,-,N/A,,Clear,30,2014-02-10 05:53:00
11:53 PM,32.0,28.9,88,30.06,10.0,Calm,Calm,-,N/A,,Clear,0,2014-02-10 06:53:00